Airfield :
LOGIN :

Register | Disclaimer

   EN    FR    IT 

 










Legend :    VFR   Marginal VFR   IFR   Intensive IFR   Very Intensive IFR
Visi :
Ceiling :
>= 8 km
>= 3000ft
5 to 8 km
1000 to 3000 ft
1500m to 5 km
500 to 1000 ft
800 to 1500m
200 to 500 ft
< 800m
< 200 ft
Symbols :   Thunderstorms  Fog  Heavy snow  Heavy precipitations  Wind > 20 kt
SIGMETs :     Misc.  Thunderstorms  Icing  Turbulence  Mountain Waves  Volcanic Ashes







- Airport Elevation : 359 ft
- IATA code : BVA
- Download approach charts


LFOB - Beauvais

CURRENT METAR :
  • 141830Z AUTO 24010KT 210V270 9999 BKN017/// BKN023/// OVC029/// ///TCU 04/03 Q0992 TEMPO 23015G25KT 1500 TSRA BKN007 BKN015CB

EXPIRED METARs :
  • 141800Z AUTO 23011KT 9999 BKN016 BKN032 BKN045 04/03 Q0992 TEMPO 23015G25KT 1500 TSRA BKN007 BKN015CB
  • 141730Z AUTO 22008KT 9999 FEW019 BKN160 BKN200 04/02 Q0992 TEMPO 23015G25KT 3000 SHRAGS BKN007 BKN030CB
  • 141700Z AUTO 22008KT 9999 FEW014 OVC170 04/03 Q0992 TEMPO 24020G35KT 2000 SHRA BKN013CB
  • 141630Z AUTO 22007KT 190V250 9999 BKN016 BKN180 OVC220 04/03 Q0993 TEMPO 24020G35KT 2000 SHRA BKN013CB
  • 141600Z AUTO 20007KT CAVOK 03/02 Q0993 TEMPO 24020G35KT 2000 SHRA BKN013CB

TAF AMD TAF LFOB
Valid from the 14 at 18:00 until the 15 at 18:00 UTC


141733Z 1418/1518 22008KT 9999 BKN030
TEMPO 1418/1514 23015G25KT 3000 SHRAGS BKN010 BKN030CB
PROB40
TEMPO 1418/1423 1500 TSRA BKN007 BKN015CB
BECMG 1514/1516 32010G20KT
ATIS : +33 3 44 11 49 28
No reported NOTAMs for that airfield.
2 SIGMETs reported for the Paris FIR (LFFF) :
 
Embedded thunderstorms
LFFF SIGMET 12 VALID 141730/141930 LFPW
LFFF PARIS FIR/UIR EMBD TS OBS AT 1715Z WI N4900 W00015 - N5000 W00015 - N5030 E00100 - N4945 E00130 - N4900 W00015 TOP FL290 MOV ESE 30KT NC=
Severe turbulence
LFFF SIGMET 11 VALID 141700/142000 LFPW
LFFF PARIS FIR/UIR SEV TURB OBS AT 1700Z S OF N4745 FL160/300 STNR NC=



MET'MAP, your aeronautical weather chart ! - Copyright ORBIFLY December 2007 - Disclaimer

ORBIFLY MET'MAP TEAM :

Programming & Development : Alexandra Zaïnal
Concept & Development : Baudouin d'Aumeries
Co-Development & Prog : Marc-Olivier Méhu
Technical & hardware support : Manuel Goepfert

Contact : metmap@orbifly.com




SOURCES & CREDITS :

   NOAA